Time;durP1;ratioP1;P1;durP2;ratioP2;P2;SDS_P1;SDS_P2;PMS_P1;PMS_P2;Temp;Humidity;BMP_temperature;BMP_pressure;BME280_temperature;BME280_humidity;BME280_pressure;Samples;Min_cycle;Max_cycle;Signal;HPM_P1;HPM_P2
2022/09/05 00:00:21;;;;;;;5.23;1.37;;;14.20;99.90;;;;;;4983741;28;20474;-68
2022/09/05 00:03:10;;;;;;;3.33;1.43;;;14.20;99.90;;;;;;4991631;28;20426;-68
2022/09/05 00:05:56;;;;;;;4.07;1.60;;;14.20;99.90;;;;;;4991935;28;20518;-68
2022/09/05 00:09:01;;;;;;;2.73;1.40;;;14.20;99.90;;;;;;4992003;28;20510;-68
2022/09/05 00:11:54;;;;;;;4.47;1.27;;;14.10;99.90;;;;;;4991983;28;20518;-68
2022/09/05 00:15:24;;;;;;;3.03;1.30;;;14.10;99.90;;;;;;4988238;28;20419;-68
2022/09/05 00:17:58;;;;;;;1.97;1.13;;;14.00;99.90;;;;;;4991222;28;20469;-68
2022/09/05 00:20:51;;;;;;;5.10;1.23;;;14.10;99.90;;;;;;4990677;28;20418;-68
2022/09/05 00:23:43;;;;;;;2.40;1.10;;;14.10;99.90;;;;;;4995304;28;20526;-68
2022/09/05 00:26:43;;;;;;;2.30;1.30;;;14.10;99.90;;;;;;4992030;28;20430;-68
2022/09/05 00:29:22;;;;;;;2.67;1.13;;;14.00;99.90;;;;;;4991248;28;20539;-68
2022/09/05 00:32:10;;;;;;;2.80;1.30;;;14.00;99.90;;;;;;4991942;28;20407;-68
2022/09/05 00:34:51;;;;;;;4.87;1.40;;;14.00;99.90;;;;;;4992262;28;20933;-68
2022/09/05 00:37:47;;;;;;;4.87;1.60;;;14.00;99.90;;;;;;4994551;28;20427;-68
2022/09/05 00:40:28;;;;;;;1.90;1.07;;;14.00;99.90;;;;;;4996174;28;20442;-68
2022/09/05 00:43:06;;;;;;;1.90;1.00;;;14.00;99.90;;;;;;4992023;28;20431;-69
2022/09/05 00:45:52;;;;;;;5.43;2.67;;;14.00;99.90;;;;;;5001080;28;20422;-68
2022/09/05 00:48:33;;;;;;;4.03;1.00;;;14.00;99.90;;;;;;5004419;28;20426;-68
2022/09/05 00:51:02;;;;;;;3.87;1.83;;;13.90;99.90;;;;;;4998325;28;20426;-68
2022/09/05 00:53:40;;;;;;;4.07;1.40;;;13.90;99.90;;;;;;4997566;28;20450;-68
2022/09/05 00:56:21;;;;;;;12.23;1.87;;;13.90;99.90;;;;;;5002143;28;20466;-68
2022/09/05 00:59:02;;;;;;;3.63;1.57;;;13.80;99.90;;;;;;4997547;28;20753;-68
2022/09/05 01:01:36;;;;;;;3.77;1.73;;;13.90;99.90;;;;;;5000784;28;20824;-68
2022/09/05 01:04:31;;;;;;;2.17;1.13;;;13.90;99.90;;;;;;5004504;28;20449;-68
2022/09/05 01:07:26;;;;;;;3.37;1.50;;;13.80;99.90;;;;;;4983710;28;20430;-69
2022/09/05 01:10:18;;;;;;;2.30;1.20;;;13.80;99.90;;;;;;5005555;28;20417;-68
2022/09/05 01:13:14;;;;;;;7.07;1.37;;;13.70;99.90;;;;;;4975730;28;20430;-68
2022/09/05 01:16:01;;;;;;;3.40;1.67;;;13.70;99.90;;;;;;5005068;28;20847;-68
2022/09/05 01:18:42;;;;;;;2.47;1.10;;;13.60;99.90;;;;;;4999917;28;20414;-67
2022/09/05 01:21:49;;;;;;;2.33;1.40;;;13.60;99.90;;;;;;4996552;28;20802;-67
2022/09/05 01:25:13;;;;;;;2.47;1.47;;;13.60;99.90;;;;;;4994952;28;20460;-67
2022/09/05 01:28:01;;;;;;;1.80;1.10;;;13.60;99.90;;;;;;5007486;28;20433;-66
2022/09/05 01:30:42;;;;;;;2.90;1.50;;;13.50;99.90;;;;;;4976437;28;20419;-66
2022/09/05 01:33:33;;;;;;;3.20;1.90;;;13.50;99.90;;;;;;5002633;28;20427;-66
2022/09/05 01:36:22;;;;;;;3.20;1.50;;;13.50;99.90;;;;;;4997112;28;20474;-66
2022/09/05 01:39:16;;;;;;;2.77;1.60;;;13.50;99.90;;;;;;5007066;28;20414;-66
2022/09/05 01:42:04;;;;;;;2.80;1.70;;;13.50;99.90;;;;;;5006977;28;20414;-66
2022/09/05 01:44:49;;;;;;;3.97;1.63;;;13.40;99.90;;;;;;4994320;28;20535;-66
2022/09/05 01:47:39;;;;;;;6.83;1.67;;;13.40;99.90;;;;;;5008002;28;20769;-66
2022/09/05 01:50:14;;;;;;;4.27;1.60;;;13.40;99.90;;;;;;4993032;28;20461;-67
2022/09/05 01:53:24;;;;;;;2.63;1.47;;;13.30;99.90;;;;;;4993861;28;20451;-66
2022/09/05 01:56:17;;;;;;;3.83;1.73;;;13.30;99.90;;;;;;4998981;28;21227;-66
2022/09/05 01:58:50;;;;;;;2.80;1.47;;;13.30;99.90;;;;;;4998796;28;20418;-66
2022/09/05 02:01:53;;;;;;;4.53;1.30;;;13.40;99.90;;;;;;4994346;28;20500;-66
2022/09/05 02:04:43;;;;;;;2.63;1.33;;;13.30;99.90;;;;;;4994554;28;20430;-66
2022/09/05 02:07:31;;;;;;;2.60;1.47;;;13.30;99.90;;;;;;4992858;28;20430;-66
2022/09/05 02:10:31;;;;;;;6.63;1.30;;;13.20;99.90;;;;;;4994893;28;20423;-66
2022/09/05 02:13:12;;;;;;;2.57;1.40;;;13.20;99.90;;;;;;5000666;28;20438;-68
2022/09/05 02:15:51;;;;;;;6.43;1.10;;;13.10;99.90;;;;;;4994488;28;20459;-66
2022/09/05 02:18:22;;;;;;;3.40;1.77;;;13.10;99.90;;;;;;5000618;28;20449;-66
2022/09/05 02:21:13;;;;;;;5.27;1.90;;;13.10;99.90;;;;;;5000262;28;20411;-66
2022/09/05 02:23:45;;;;;;;3.00;1.73;;;13.10;99.90;;;;;;5004848;28;20421;-66
2022/09/05 02:26:23;;;;;;;3.67;2.00;;;13.10;99.90;;;;;;4993845;28;20430;-67
2022/09/05 02:29:05;;;;;;;3.23;1.70;;;13.20;99.90;;;;;;4993237;28;20427;-67
2022/09/05 02:31:48;;;;;;;3.90;1.93;;;13.20;99.90;;;;;;4985987;28;20427;-67
2022/09/05 02:34:32;;;;;;;3.63;1.53;;;13.20;99.90;;;;;;4996069;28;20419;-66
2022/09/05 02:37:18;;;;;;;1.80;1.20;;;13.20;99.90;;;;;;4994308;28;20447;-66
2022/09/05 02:39:47;;;;;;;5.17;2.27;;;13.10;99.90;;;;;;4997777;28;20929;-67
2022/09/05 02:42:44;;;;;;;3.23;1.50;;;13.10;99.90;;;;;;4990590;28;20424;-66
2022/09/05 02:45:25;;;;;;;6.40;1.67;;;13.10;99.90;;;;;;5000494;28;20466;-67
2022/09/05 02:47:56;;;;;;;2.07;1.17;;;13.00;99.90;;;;;;5002206;28;20906;-66
2022/09/05 02:50:40;;;;;;;1.90;1.10;;;13.00;99.90;;;;;;4994469;28;20819;-67
2022/09/05 02:53:10;;;;;;;3.27;1.87;;;13.00;99.90;;;;;;4991476;28;20442;-66
2022/09/05 02:55:47;;;;;;;2.90;1.20;;;13.00;99.90;;;;;;4994903;28;20474;-66
2022/09/05 02:58:35;;;;;;;2.87;1.27;;;13.00;99.90;;;;;;4994332;28;20422;-67
2022/09/05 03:01:37;;;;;;;2.00;1.30;;;13.00;99.90;;;;;;5001476;28;20906;-66
2022/09/05 03:04:12;;;;;;;3.63;1.33;;;12.90;99.90;;;;;;4984507;28;20450;-66
2022/09/05 03:06:56;;;;;;;2.53;1.40;;;12.90;99.90;;;;;;4994294;28;20431;-66
2022/09/05 03:09:37;;;;;;;2.57;1.13;;;12.90;99.90;;;;;;5001289;28;20423;-66
2022/09/05 03:12:30;;;;;;;5.40;1.20;;;12.80;99.90;;;;;;5006805;28;20422;-66
2022/09/05 03:15:17;;;;;;;5.00;2.17;;;12.80;99.90;;;;;;4989727;28;20977;-66
2022/09/05 03:18:10;;;;;;;3.70;1.83;;;12.80;99.90;;;;;;4994595;28;20426;-66
2022/09/05 03:20:43;;;;;;;5.83;1.57;;;12.90;99.90;;;;;;4993538;28;20968;-66
2022/09/05 03:23:30;;;;;;;3.40;1.87;;;12.90;99.90;;;;;;4992783;28;20517;-66
2022/09/05 03:26:16;;;;;;;3.43;1.83;;;12.90;99.90;;;;;;4992457;28;20466;-66
2022/09/05 03:29:17;;;;;;;4.20;1.13;;;12.90;99.90;;;;;;4992111;28;20423;-66
2022/09/05 03:32:01;;;;;;;3.10;1.67;;;12.90;99.90;;;;;;5006036;28;20430;-66
2022/09/05 03:34:33;;;;;;;2.70;1.90;;;12.90;99.90;;;;;;4993731;28;20783;-66
2022/09/05 03:37:10;;;;;;;3.27;2.23;;;12.90;99.90;;;;;;4994143;28;20926;-65
2022/09/05 03:40:08;;;;;;;2.87;1.57;;;12.90;99.90;;;;;;4986490;28;20418;-66
2022/09/05 03:42:57;;;;;;;3.70;1.60;;;12.90;99.90;;;;;;4987612;28;20739;-66
2022/09/05 03:45:28;;;;;;;5.07;1.50;;;12.80;99.90;;;;;;4996576;28;20419;-65
2022/09/05 03:48:38;;;;;;;2.33;1.27;;;12.80;99.90;;;;;;4992739;28;20431;-65
2022/09/05 03:51:10;;;;;;;2.33;1.30;;;12.70;99.90;;;;;;4989907;28;20438;-65
2022/09/05 03:53:59;;;;;;;3.10;1.80;;;12.80;99.90;;;;;;4995327;28;20923;-65
2022/09/05 03:56:46;;;;;;;3.07;1.50;;;12.80;99.90;;;;;;4999794;28;20469;-65
2022/09/05 03:59:27;;;;;;;3.20;1.80;;;12.80;99.90;;;;;;5001443;28;20438;-65
2022/09/05 04:02:01;;;;;;;2.73;1.57;;;12.80;99.90;;;;;;4996795;28;20415;-68
2022/09/05 04:04:43;;;;;;;4.80;1.83;;;12.80;99.90;;;;;;4987377;28;20442;-68
2022/09/05 04:07:42;;;;;;;10.67;2.20;;;12.90;99.90;;;;;;5003012;28;20426;-68
2022/09/05 04:10:30;;;;;;;5.80;2.07;;;12.90;99.90;;;;;;4990682;28;20433;-68
2022/09/05 04:13:08;;;;;;;2.20;1.27;;;12.90;99.90;;;;;;4997903;28;20413;-68
2022/09/05 04:15:42;;;;;;;3.50;2.23;;;12.80;99.90;;;;;;5016223;28;20466;-68
2022/09/05 04:18:26;;;;;;;3.13;1.50;;;12.80;99.90;;;;;;5015749;28;20420;-68
2022/09/05 04:21:06;;;;;;;2.83;1.70;;;12.80;99.90;;;;;;5001588;28;20446;-68
2022/09/05 04:24:05;;;;;;;3.63;1.50;;;12.80;99.90;;;;;;4986606;28;20485;-68
2022/09/05 04:26:42;;;;;;;3.17;1.60;;;12.80;99.90;;;;;;4984627;28;20450;-68
2022/09/05 04:29:20;;;;;;;8.03;1.40;;;12.70;99.90;;;;;;4995845;28;20425;-66
2022/09/05 04:32:00;;;;;;;3.83;1.90;;;12.60;99.90;;;;;;4996057;28;20433;-66
2022/09/05 04:34:46;;;;;;;4.47;2.20;;;12.60;99.90;;;;;;5003704;28;20737;-67
2022/09/05 04:37:49;;;;;;;2.37;1.23;;;12.70;99.90;;;;;;5012987;28;20430;-66
2022/09/05 04:40:35;;;;;;;2.83;1.50;;;12.70;99.90;;;;;;5008584;28;20939;-66
2022/09/05 04:43:36;;;;;;;2.83;1.40;;;12.70;99.90;;;;;;4992006;28;20434;-66
2022/09/05 04:46:32;;;;;;;4.20;1.70;;;12.60;99.90;;;;;;5007907;28;20476;-66
2022/09/05 04:49:17;;;;;;;2.53;1.37;;;12.60;99.90;;;;;;4989921;28;20433;-66
2022/09/05 04:51:54;;;;;;;2.13;1.40;;;12.60;99.90;;;;;;5014908;28;20421;-66
2022/09/05 04:54:41;;;;;;;2.23;1.10;;;12.60;99.90;;;;;;4994381;28;20794;-67
2022/09/05 04:57:07;;;;;;;3.50;1.87;;;12.60;99.90;;;;;;4993455;28;20425;-66
2022/09/05 04:59:46;;;;;;;4.07;1.77;;;12.60;99.90;;;;;;5015065;28;20418;-66
2022/09/05 05:02:38;;;;;;;4.10;1.93;;;12.60;99.90;;;;;;5014647;28;20636;-66
2022/09/05 05:05:09;;;;;;;4.07;1.63;;;12.60;99.90;;;;;;5015396;28;20422;-66
2022/09/05 05:07:43;;;;;;;2.00;1.30;;;12.60;99.90;;;;;;5002207;28;20803;-66
2022/09/05 05:10:19;;;;;;;4.93;2.20;;;12.60;99.90;;;;;;4997314;28;20901;-66
2022/09/05 05:13:19;;;;;;;2.63;1.33;;;12.60;99.90;;;;;;5012209;28;20460;-67
2022/09/05 05:16:08;;;;;;;2.70;1.47;;;12.60;99.90;;;;;;4995185;28;20516;-66
2022/09/05 05:18:50;;;;;;;2.83;1.60;;;12.70;99.90;;;;;;4991130;28;20441;-67
2022/09/05 05:21:20;;;;;;;5.27;2.87;;;12.70;99.90;;;;;;4994968;28;20415;-67
2022/09/05 05:23:48;;;;;;;4.10;2.10;;;12.70;99.90;;;;;;5005991;28;20425;-66
2022/09/05 05:26:50;;;;;;;3.07;1.53;;;12.80;99.90;;;;;;5014434;28;20433;-67
2022/09/05 05:29:24;;;;;;;14.53;1.80;;;12.80;99.90;;;;;;5001240;28;20488;-67
2022/09/05 05:31:57;;;;;;;22.10;2.50;;;12.90;99.90;;;;;;5014305;28;20430;-67
2022/09/05 05:34:27;;;;;;;3.33;1.40;;;12.90;99.90;;;;;;5014233;28;20848;-67
2022/09/05 05:37:01;;;;;;;2.00;1.10;;;13.00;99.90;;;;;;5014594;28;20871;-68
2022/09/05 05:39:28;;;;;;;4.70;2.07;;;13.00;99.90;;;;;;5012378;28;20461;-68
2022/09/05 05:41:56;;;;;;;3.63;1.80;;;13.10;99.90;;;;;;5009422;28;20452;-67
2022/09/05 05:44:32;;;;;;;5.17;2.60;;;13.10;99.90;;;;;;4999467;28;20852;-67
2022/09/05 05:47:03;;;;;;;3.00;1.70;;;13.20;99.90;;;;;;5007342;28;20422;-67
2022/09/05 05:50:00;;;;;;;4.10;1.70;;;13.20;99.90;;;;;;5005218;28;20433;-67
2022/09/05 05:52:32;;;;;;;2.30;1.50;;;13.20;99.90;;;;;;4981848;28;20439;-65
2022/09/05 05:55:06;;;;;;;3.37;1.70;;;13.30;99.90;;;;;;4992730;28;20958;-65
2022/09/05 05:57:53;;;;;;;4.37;1.77;;;13.40;99.90;;;;;;5009419;28;20428;-65
2022/09/05 06:00:26;;;;;;;7.63;1.97;;;13.40;99.90;;;;;;5000878;28;21021;-66
2022/09/05 06:03:04;;;;;;;7.03;2.03;;;13.50;99.90;;;;;;5012266;28;20426;-66
2022/09/05 06:05:43;;;;;;;3.67;2.03;;;13.50;99.90;;;;;;4994612;28;20426;-66
2022/09/05 06:08:31;;;;;;;2.60;1.80;;;13.60;99.90;;;;;;4994358;28;20419;-66
2022/09/05 06:11:34;;;;;;;3.90;2.10;;;13.70;99.90;;;;;;5002744;28;20449;-66
2022/09/05 06:14:26;;;;;;;2.97;1.60;;;13.80;99.90;;;;;;5013343;28;20965;-66
2022/09/05 06:16:57;;;;;;;4.73;2.47;;;13.90;99.90;;;;;;4983236;28;20411;-66
2022/09/05 06:19:52;;;;;;;9.33;2.57;;;14.00;99.90;;;;;;5009934;28;20414;-65
2022/09/05 06:22:30;;;;;;;4.13;2.13;;;14.10;99.90;;;;;;5005568;28;20454;-66
2022/09/05 06:25:33;;;;;;;4.47;2.13;;;14.20;99.90;;;;;;5005286;28;20419;-66
2022/09/05 06:28:14;;;;;;;5.20;2.70;;;14.20;99.90;;;;;;5000532;28;20884;-65
2022/09/05 06:31:11;;;;;;;5.40;2.33;;;14.40;99.90;;;;;;5013476;28;20422;-66
2022/09/05 06:34:14;;;;;;;3.97;2.27;;;14.50;99.90;;;;;;5012572;28;20422;-65
2022/09/05 06:37:02;;;;;;;2.90;1.90;;;14.60;99.90;;;;;;4985415;28;20484;-66
2022/09/05 06:39:58;;;;;;;4.30;2.57;;;14.80;99.90;;;;;;4993951;28;20781;-66
2022/09/05 06:42:46;;;;;;;4.90;2.00;;;15.00;99.90;;;;;;5001564;28;20905;-66
2022/09/05 06:45:39;;;;;;;3.00;1.70;;;15.20;99.90;;;;;;5002171;28;20431;-65
2022/09/05 06:48:11;;;;;;;3.73;1.83;;;15.30;99.90;;;;;;5008752;28;20419;-66
2022/09/05 06:51:17;;;;;;;4.83;2.30;;;15.40;99.90;;;;;;5011621;28;20795;-65
2022/09/05 06:54:04;;;;;;;6.17;2.20;;;15.60;99.90;;;;;;4990432;28;20444;-65
2022/09/05 06:56:50;;;;;;;3.17;1.87;;;15.80;99.90;;;;;;5009172;28;20475;-66
2022/09/05 06:59:18;;;;;;;4.97;2.17;;;16.00;99.90;;;;;;5005007;28;20545;-66
2022/09/05 07:02:07;;;;;;;3.87;2.10;;;16.20;99.90;;;;;;5004299;28;20419;-66
2022/09/05 07:04:41;;;;;;;3.50;1.83;;;16.60;99.90;;;;;;5012959;28;20534;-67
2022/09/05 07:07:26;;;;;;;3.87;1.87;;;16.90;99.90;;;;;;5013212;28;20418;-66
2022/09/05 07:09:57;;;;;;;4.73;1.97;;;17.20;99.90;;;;;;4995409;28;20423;-67
2022/09/05 07:12:28;;;;;;;3.43;1.73;;;17.50;99.90;;;;;;5004430;28;20744;-66
2022/09/05 07:15:07;;;;;;;3.60;1.70;;;18.00;99.90;;;;;;4980169;28;20508;-66
2022/09/05 07:17:46;;;;;;;3.57;1.57;;;18.70;99.90;;;;;;5002284;28;20422;-66
2022/09/05 07:20:25;;;;;;;6.80;2.40;;;19.10;99.90;;;;;;5001369;28;20418;-66
2022/09/05 07:22:57;;;;;;;6.83;2.40;;;19.50;99.90;;;;;;4991789;28;20427;-67
2022/09/05 07:25:28;;;;;;;3.53;2.10;;;20.40;99.90;;;;;;5004964;28;20456;-67
2022/09/05 07:27:55;;;;;;;2.87;1.60;;;21.10;99.90;;;;;;5012070;28;20442;-67
2022/09/05 07:30:21;;;;;;;2.83;1.77;;;22.40;99.90;;;;;;5012315;28;20933;-67
2022/09/05 07:32:53;;;;;;;2.03;1.10;;;23.40;99.50;;;;;;5000582;28;20430;-67
2022/09/05 07:35:29;;;;;;;3.73;1.60;;;24.60;96.80;;;;;;4999037;28;20206;-67
2022/09/05 07:38:12;;;;;;;2.53;1.67;;;25.50;94.30;;;;;;5012206;28;20287;-68
2022/09/05 07:40:54;;;;;;;4.88;1.95;;;25.80;93.60;;;;;;5012334;28;20187;-68
2022/09/05 07:43:27;;;;;;;2.83;1.45;;;27.00;91.60;;;;;;4997887;28;20668;-68
2022/09/05 07:46:05;;;;;;;9.75;1.85;;;27.40;88.30;;;;;;5004467;28;20198;-68
2022/09/05 07:48:42;;;;;;;2.00;1.15;;;26.70;90.00;;;;;;4997096;28;20280;-68
2022/09/05 07:51:18;;;;;;;2.92;1.23;;;27.00;89.10;;;;;;5011574;28;20186;-68
2022/09/05 07:53:43;;;;;;;2.20;1.30;;;26.50;89.10;;;;;;4993304;28;20298;-68
2022/09/05 07:56:11;;;;;;;3.90;2.05;;;26.60;90.20;;;;;;5008911;28;20687;-68
2022/09/05 07:58:42;;;;;;;3.38;1.65;;;26.40;90.50;;;;;;5011050;28;20183;-68
2022/09/05 08:01:13;;;;;;;3.15;1.42;;;26.70;88.70;;;;;;5007765;28;20186;-68
2022/09/05 08:03:41;;;;;;;2.53;1.45;;;26.50;90.10;;;;;;4987242;28;20182;-69
2022/09/05 08:06:14;;;;;;;6.22;1.42;;;26.60;90.50;;;;;;5008720;28;20645;-69
2022/09/05 08:08:55;;;;;;;4.13;2.10;;;27.40;86.60;;;;;;5012204;28;20205;-69
2022/09/05 08:11:24;;;;;;;5.75;1.70;;;27.60;87.50;;;;;;5011138;28;20182;-69
2022/09/05 08:13:57;;;;;;;2.95;1.50;;;27.30;88.40;;;;;;5011669;28;20187;-69
2022/09/05 08:16:24;;;;;;;3.45;1.38;;;27.50;87.20;;;;;;5011505;28;20202;-69
2022/09/05 08:19:11;;;;;;;1.92;1.02;;;27.30;86.50;;;;;;5012298;28;20175;-67
2022/09/05 08:21:47;;;;;;;2.60;1.48;;;27.50;85.40;;;;;;5010852;28;20240;-67
2022/09/05 08:24:23;;;;;;;3.15;1.73;;;27.60;86.60;;;;;;4995832;28;20682;-68
2022/09/05 08:27:12;;;;;;;3.42;2.03;;;27.80;84.50;;;;;;5012194;28;20195;-68
2022/09/05 08:29:44;;;;;;;2.63;1.70;;;27.50;86.10;;;;;;5012055;28;20186;-67
2022/09/05 08:32:17;;;;;;;2.85;1.50;;;28.50;82.70;;;;;;5001008;28;20191;-67
2022/09/05 08:34:48;;;;;;;3.75;1.50;;;28.50;83.10;;;;;;5001884;28;20273;-67
2022/09/05 08:37:20;;;;;;;2.22;1.13;;;28.30;84.50;;;;;;5000469;28;20265;-68
2022/09/05 08:39:52;;;;;;;2.17;1.00;;;27.90;85.20;;;;;;5011662;28;20670;-67
2022/09/05 08:42:26;;;;;;;3.28;1.20;;;27.80;84.20;;;;;;5000741;28;20247;-68
2022/09/05 08:45:20;;;;;;;2.10;1.10;;;27.90;84.50;;;;;;5001800;28;20224;-68
2022/09/05 08:48:07;;;;;;;2.53;1.40;;;28.10;84.70;;;;;;4992923;28;20729;-68
2022/09/05 08:51:10;;;;;;;3.65;1.65;;;28.60;81.60;;;;;;5004904;28;20758;-68
2022/09/05 08:53:41;;;;;;;1.95;1.27;;;28.70;81.60;;;;;;4992503;28;20198;-69
2022/09/05 08:56:17;;;;;;;3.20;1.10;;;28.60;84.40;;;;;;5008821;28;20214;-69
2022/09/05 08:59:06;;;;;;;3.17;1.33;;;28.30;83.20;;;;;;4989594;28;20662;-69
2022/09/05 09:01:54;;;;;;;2.47;1.55;;;28.60;81.90;;;;;;5011161;28;20182;-69
2022/09/05 09:04:23;;;;;;;3.22;1.15;;;28.50;81.80;;;;;;5015379;28;20206;-69
2022/09/05 09:07:07;;;;;;;3.30;1.65;;;27.90;84.30;;;;;;5015040;28;20229;-69
2022/09/05 09:10:12;;;;;;;2.92;1.63;;;28.00;84.40;;;;;;5014851;28;20218;-69
2022/09/05 09:12:59;;;;;;;2.50;1.58;;;28.00;84.30;;;;;;5012019;28;20206;-69
2022/09/05 09:15:34;;;;;;;3.60;1.67;;;28.30;84.50;;;;;;5014858;28;20202;-69
2022/09/05 09:18:15;;;;;;;3.83;1.55;;;28.50;81.90;;;;;;5014267;28;20182;-69
2022/09/05 09:20:57;;;;;;;2.53;1.30;;;28.40;81.70;;;;;;5014685;28;20178;-69
2022/09/05 09:23:45;;;;;;;3.78;1.30;;;27.80;83.90;;;;;;5008588;28;20183;-69
2022/09/05 09:26:21;;;;;;;4.50;1.48;;;27.90;84.00;;;;;;5013383;28;20183;-69
2022/09/05 09:29:11;;;;;;;3.45;1.10;;;28.20;81.50;;;;;;4994688;28;20182;-69
2022/09/05 09:31:45;;;;;;;3.45;1.50;;;28.00;83.70;;;;;;5006833;28;20190;-70
2022/09/05 09:34:26;;;;;;;2.97;1.70;;;27.90;82.90;;;;;;5011676;28;20229;-69
2022/09/05 09:36:57;;;;;;;5.10;1.30;;;27.90;83.40;;;;;;5001466;28;20183;-69
2022/09/05 09:39:28;;;;;;;55.10;1.45;;;27.80;83.10;;;;;;5002050;28;20178;-69
2022/09/05 09:42:20;;;;;;;2.97;1.50;;;27.80;83.30;;;;;;5009778;28;20185;-69
2022/09/05 09:45:08;;;;;;;1.98;1.15;;;27.90;80.60;;;;;;4991149;28;20187;-69
2022/09/05 09:47:44;;;;;;;2.13;1.23;;;28.10;81.30;;;;;;4991885;28;20178;-69
2022/09/05 09:50:24;;;;;;;2.42;1.13;;;28.00;80.00;;;;;;5014233;28;20571;-68
2022/09/05 09:53:22;;;;;;;2.20;0.90;;;27.60;81.00;;;;;;4997648;28;20192;-69
2022/09/05 09:56:25;;;;;;;1.90;1.10;;;27.40;83.10;;;;;;5004265;28;20210;-68
2022/09/05 09:59:06;;;;;;;2.83;1.67;;;27.30;82.70;;;;;;4982374;28;20176;-68
2022/09/05 10:01:53;;;;;;;2.20;1.10;;;27.10;81.40;;;;;;5005964;28;20214;-68
2022/09/05 10:04:36;;;;;;;2.50;1.38;;;27.20;82.10;;;;;;5014322;28;20178;-68
2022/09/05 10:07:11;;;;;;;2.37;1.30;;;27.30;79.20;;;;;;4990920;28;20262;-68
2022/09/05 10:10:04;;;;;;;4.83;1.57;;;26.90;79.40;;;;;;5010773;28;20178;-68
2022/09/05 10:12:44;;;;;;;2.33;1.30;;;26.90;79.40;;;;;;5006307;28;20281;-68
2022/09/05 10:15:28;;;;;;;4.73;1.43;;;26.80;78.80;;;;;;5013760;28;20960;-68
2022/09/05 10:18:18;;;;;;;2.60;1.30;;;26.70;79.60;;;;;;5000798;28;20807;-68
2022/09/05 10:20:53;;;;;;;2.13;0.90;;;26.80;79.70;;;;;;5007678;28;20797;-68
2022/09/05 10:23:45;;;;;;;2.23;0.97;;;26.70;76.40;;;;;;5007885;28;20769;-68
2022/09/05 10:26:48;;;;;;;2.00;1.00;;;26.80;78.70;;;;;;5013376;28;20461;-68
2022/09/05 10:29:41;;;;;;;3.93;1.30;;;26.70;77.60;;;;;;5013213;28;20417;-68
2022/09/05 10:32:19;;;;;;;2.47;1.23;;;26.90;78.60;;;;;;5000654;28;20194;-68
2022/09/05 10:34:58;;;;;;;2.00;1.00;;;27.00;78.80;;;;;;5013549;28;20823;-68
2022/09/05 10:37:50;;;;;;;2.90;1.47;;;27.00;76.50;;;;;;5012928;28;20520;-68
2022/09/05 10:40:27;;;;;;;2.03;1.13;;;26.70;76.40;;;;;;5008760;28;20218;-68
2022/09/05 10:43:01;;;;;;;2.10;1.30;;;26.80;77.00;;;;;;4999211;28;20759;-68
2022/09/05 10:45:48;;;;;;;6.73;1.53;;;26.80;77.10;;;;;;5000001;28;20496;-68
2022/09/05 10:48:22;;;;;;;2.17;0.77;;;26.90;77.80;;;;;;5007026;28;20420;-68
2022/09/05 10:51:33;;;;;;;2.20;1.30;;;27.10;74.20;;;;;;5004573;28;20445;-68
2022/09/05 10:54:37;;;;;;;1.90;0.80;;;27.30;73.70;;;;;;5008651;28;20462;-68
2022/09/05 10:57:36;;;;;;;2.33;1.20;;;27.40;73.90;;;;;;5011256;28;20244;-66
2022/09/05 11:00:28;;;;;;;2.27;1.10;;;27.50;75.80;;;;;;5008812;28;20266;-66
2022/09/05 11:02:56;;;;;;;2.07;1.00;;;27.60;72.90;;;;;;5006485;28;20182;-66
2022/09/05 11:05:25;;;;;;;2.00;1.00;;;27.70;75.30;;;;;;5012961;28;20517;-66
2022/09/05 11:08:22;;;;;;;2.27;1.27;;;27.70;73.70;;;;;;5000697;28;20183;-67
2022/09/05 11:10:58;;;;;;;2.77;1.10;;;27.80;74.30;;;;;;5013051;28;20185;-68
2022/09/05 11:13:45;;;;;;;2.47;1.30;;;27.90;71.60;;;;;;5004478;28;20896;-67
2022/09/05 11:16:19;;;;;;;3.60;1.07;;;27.90;71.40;;;;;;5010004;28;20693;-68
2022/09/05 11:18:56;;;;;;;3.63;1.00;;;27.90;72.40;;;;;;5012601;28;20582;-68
2022/09/05 11:21:30;;;;;;;2.90;1.60;;;28.00;72.40;;;;;;5011481;28;20178;-68
2022/09/05 11:24:06;;;;;;;3.70;1.07;;;28.00;70.90;;;;;;5007521;28;20192;-68
2022/09/05 11:26:41;;;;;;;7.83;0.87;;;27.90;68.70;;;;;;5013063;28;20202;-68
2022/09/05 11:29:47;;;;;;;2.10;1.20;;;28.20;63.30;;;;;;5012271;28;20178;-68
2022/09/05 11:32:19;;;;;;;3.20;0.93;;;28.30;62.40;;;;;;5000519;28;20592;-68
2022/09/05 11:35:01;;;;;;;2.67;1.00;;;28.30;63.60;;;;;;5012775;28;20201;-69
2022/09/05 11:37:58;;;;;;;2.00;1.10;;;28.60;63.60;;;;;;5012545;28;20686;-68
2022/09/05 11:40:57;;;;;;;4.70;1.20;;;28.50;64.40;;;;;;5009086;28;20230;-68
2022/09/05 11:44:07;;;;;;;2.15;1.10;;;28.30;63.00;;;;;;4992110;28;20228;-69
2022/09/05 11:47:00;;;;;;;2.83;0.90;;;28.60;65.40;;;;;;5005694;28;20221;-68
2022/09/05 11:49:57;;;;;;;4.35;1.13;;;28.90;64.70;;;;;;5012575;28;20968;-68
2022/09/05 11:52:40;;;;;;;2.15;1.20;;;28.80;64.60;;;;;;4976373;28;20582;-68
2022/09/05 11:55:19;;;;;;;3.58;1.10;;;28.70;64.20;;;;;;5006900;28;20228;-68
2022/09/05 11:58:02;;;;;;;3.13;1.50;;;28.60;65.20;;;;;;4995583;28;20509;-68
2022/09/05 12:00:39;;;;;;;3.87;1.20;;;28.30;67.20;;;;;;4988983;28;20191;-68
2022/09/05 12:03:44;;;;;;;2.37;0.97;;;28.00;67.40;;;;;;5007915;28;20265;-69
2022/09/05 12:06:21;;;;;;;2.23;1.20;;;27.60;67.30;;;;;;5012015;28;20253;-68
2022/09/05 12:09:00;;;;;;;2.67;1.40;;;27.40;70.50;;;;;;5011926;28;20689;-69
2022/09/05 12:12:05;;;;;;;2.37;1.10;;;27.10;72.00;;;;;;5011650;28;20277;-69
2022/09/05 12:15:06;;;;;;;2.80;0.93;;;26.70;72.50;;;;;;5011985;28;20413;-69
2022/09/05 12:18:02;;;;;;;2.60;1.20;;;26.40;73.00;;;;;;5011405;28;20421;-68
2022/09/05 12:20:53;;;;;;;2.77;1.50;;;26.10;73.50;;;;;;5012059;28;20456;-68
2022/09/05 12:23:47;;;;;;;4.10;1.40;;;26.00;74.50;;;;;;4989276;28;20429;-68
2022/09/05 12:26:45;;;;;;;3.80;1.20;;;25.80;76.10;;;;;;5011616;28;20448;-68
2022/09/05 12:29:18;;;;;;;2.77;1.10;;;25.80;77.70;;;;;;5010768;28;20433;-68
2022/09/05 12:31:57;;;;;;;3.03;1.33;;;26.00;79.20;;;;;;5002184;28;20986;-68
2022/09/05 12:34:54;;;;;;;3.37;1.30;;;26.60;77.70;;;;;;5001610;28;20428;-69
2022/09/05 12:37:23;;;;;;;4.47;1.67;;;27.20;73.30;;;;;;5001669;28;20430;-68
2022/09/05 12:39:55;;;;;;;2.43;1.17;;;27.70;71.20;;;;;;5004617;28;20410;-68
2022/09/05 12:42:49;;;;;;;2.50;1.10;;;28.10;69.60;;;;;;5004855;28;20179;-69
2022/09/05 12:45:26;;;;;;;2.37;1.23;;;28.00;69.70;;;;;;4993945;28;20198;-68
2022/09/05 12:47:52;;;;;;;2.33;1.20;;;28.00;70.40;;;;;;5006619;28;20185;-68
2022/09/05 12:50:19;;;;;;;3.43;1.20;;;28.10;70.90;;;;;;4997856;28;20237;-68
2022/09/05 12:52:50;;;;;;;1.90;0.93;;;28.30;70.50;;;;;;4992193;28;20188;-69
2022/09/05 12:55:25;;;;;;;4.87;1.30;;;28.40;69.70;;;;;;4994273;28;20215;-69
2022/09/05 12:57:57;;;;;;;1.70;0.90;;;28.50;69.90;;;;;;4995550;28;20183;-68
2022/09/05 13:00:23;;;;;;;3.25;1.48;;;28.70;69.00;;;;;;4996279;28;20194;-69
2022/09/05 13:02:59;;;;;;;4.13;1.20;;;28.80;67.40;;;;;;4994699;28;20188;-69
2022/09/05 13:05:50;;;;;;;2.50;1.37;;;28.80;69.10;;;;;;4995659;28;20557;-69
2022/09/05 13:08:20;;;;;;;4.70;1.23;;;28.80;67.30;;;;;;4995577;28;20330;-68
2022/09/05 13:10:56;;;;;;;9.13;1.40;;;28.70;68.60;;;;;;4999874;28;20689;-68
2022/09/05 13:13:25;;;;;;;4.00;1.45;;;28.70;68.00;;;;;;5012334;28;20192;-68
2022/09/05 13:15:52;;;;;;;1.80;0.90;;;28.70;67.70;;;;;;5000769;28;20210;-68
2022/09/05 13:18:22;;;;;;;1.98;0.90;;;28.80;68.00;;;;;;4995261;28;20194;-68
2022/09/05 13:21:01;;;;;;;4.05;1.10;;;28.70;68.00;;;;;;4995154;28;20187;-68
2022/09/05 13:24:00;;;;;;;2.60;1.02;;;28.90;68.60;;;;;;4995014;28;20179;-69
2022/09/05 13:26:38;;;;;;;5.38;2.13;;;28.80;70.70;;;;;;5002410;28;20236;-68
2022/09/05 13:29:16;;;;;;;4.18;1.45;;;29.00;69.80;;;;;;4998282;28;20183;-69
2022/09/05 13:31:43;;;;;;;1.85;0.98;;;29.20;68.60;;;;;;4994714;28;20182;-69
2022/09/05 13:34:35;;;;;;;6.43;1.70;;;29.10;68.30;;;;;;4993672;28;20187;-69
2022/09/05 13:37:06;;;;;;;2.08;1.02;;;29.20;67.20;;;;;;5007624;28;20300;-69
2022/09/05 13:39:48;;;;;;;3.17;1.38;;;29.40;66.60;;;;;;4994788;28;20184;-69
2022/09/05 13:42:18;;;;;;;3.20;1.65;;;29.40;66.60;;;;;;4990653;28;20187;-68
2022/09/05 13:44:46;;;;;;;2.10;1.23;;;29.00;67.60;;;;;;4999724;28;20226;-69
2022/09/05 13:47:30;;;;;;;5.20;1.30;;;28.90;68.70;;;;;;5012946;28;20179;-69
2022/09/05 13:50:12;;;;;;;3.88;1.38;;;28.90;70.30;;;;;;5013827;28;20181;-68
2022/09/05 13:52:46;;;;;;;2.53;1.25;;;29.20;66.70;;;;;;5001352;28;20196;-69
2022/09/05 13:55:18;;;;;;;3.28;1.50;;;29.10;68.20;;;;;;5009236;28;20206;-69
2022/09/05 13:57:46;;;;;;;9.05;2.13;;;29.10;67.70;;;;;;5009816;28;20743;-68
2022/09/05 14:00:12;;;;;;;2.55;1.30;;;29.00;67.70;;;;;;4995650;28;20525;-68
2022/09/05 14:02:52;;;;;;;3.65;1.58;;;28.80;68.10;;;;;;4993877;28;20206;-68
2022/09/05 14:05:39;;;;;;;9.10;1.48;;;28.60;67.40;;;;;;4994459;28;20802;-68